createdAt,value
2023-05-20T00:00:15.367Z,95159.00
2023-05-20T00:01:15.235Z,95158.00
2023-05-20T00:02:15.241Z,95156.00
2023-05-20T00:03:15.352Z,95152.00
2023-05-20T00:04:15.493Z,95150.00
2023-05-20T00:05:15.279Z,95148.00
2023-05-20T00:06:15.227Z,95150.00
2023-05-20T00:07:15.207Z,95150.00
2023-05-20T00:08:15.217Z,95152.00
2023-05-20T00:09:15.218Z,95152.00
2023-05-20T00:10:15.214Z,95152.00
2023-05-20T00:11:15.197Z,95150.00
2023-05-20T00:12:15.208Z,95148.00
2023-05-20T00:13:15.727Z,95148.00
2023-05-20T00:14:15.207Z,95146.00
2023-05-20T00:15:15.225Z,95146.00
2023-05-20T00:16:15.250Z,95144.00
2023-05-20T00:17:15.201Z,95142.00
2023-05-20T00:18:15.684Z,95138.00
2023-05-20T00:19:15.239Z,95134.00
2023-05-20T00:20:15.180Z,95132.00
2023-05-20T00:21:15.234Z,95128.00
2023-05-20T00:22:15.195Z,95128.00
2023-05-20T00:23:15.219Z,95128.00
2023-05-20T00:24:15.215Z,95126.00
2023-05-20T00:25:15.223Z,95126.00
2023-05-20T00:26:15.235Z,95122.00
2023-05-20T00:27:15.203Z,95118.00
2023-05-20T00:28:15.201Z,95116.00
2023-05-20T00:29:15.226Z,95107.00
2023-05-20T00:30:15.223Z,95105.00
2023-05-20T00:31:15.229Z,95109.00
2023-05-20T00:32:15.253Z,95109.00
2023-05-20T00:33:15.266Z,95107.00
2023-05-20T00:34:15.228Z,95107.00
2023-05-20T00:35:15.218Z,95107.00
2023-05-20T00:36:15.210Z,95105.00
2023-05-20T00:37:15.253Z,95105.00
2023-05-20T00:38:15.219Z,95111.00
2023-05-20T00:39:15.242Z,95105.00
2023-05-20T00:40:15.769Z,95105.00
2023-05-20T00:41:15.230Z,95105.00
2023-05-20T00:42:15.269Z,95101.00
2023-05-20T00:43:15.257Z,95099.00
2023-05-20T00:44:15.250Z,95101.00
2023-05-20T00:45:15.271Z,95099.00
2023-05-20T00:46:15.289Z,95097.00
2023-05-20T00:47:15.279Z,95101.00
2023-05-20T00:48:15.280Z,95095.00
2023-05-20T00:49:15.292Z,95095.00
2023-05-20T00:50:15.297Z,95093.00
2023-05-20T00:51:15.300Z,95093.00
2023-05-20T00:52:15.315Z,95093.00
2023-05-20T00:53:15.317Z,95095.00
2023-05-20T00:54:15.330Z,95097.00
2023-05-20T00:55:15.306Z,95099.00
2023-05-20T00:56:15.293Z,95103.00
2023-05-20T00:57:15.296Z,95107.00
2023-05-20T00:58:15.324Z,95107.00
2023-05-20T00:59:15.315Z,95109.00
2023-05-20T01:00:15.350Z,95111.00
2023-05-20T01:01:15.365Z,95112.00
2023-05-20T01:02:15.421Z,95111.00
2023-05-20T01:03:15.533Z,95112.00
2023-05-20T01:04:15.393Z,95114.00
2023-05-20T01:05:15.371Z,95111.00
2023-05-20T01:06:15.374Z,95111.00
2023-05-20T01:07:15.396Z,95109.00
2023-05-20T01:08:15.376Z,95112.00
2023-05-20T01:09:15.370Z,95112.00
2023-05-20T01:10:15.393Z,95109.00
2023-05-20T01:11:15.373Z,95107.00
2023-05-20T01:12:15.380Z,95107.00
2023-05-20T01:13:15.371Z,95107.00
2023-05-20T01:14:15.389Z,95107.00
2023-05-20T01:15:15.398Z,95105.00
2023-05-20T01:16:15.505Z,95105.00
2023-05-20T01:17:15.418Z,95105.00
2023-05-20T01:18:15.420Z,95103.00
2023-05-20T01:19:15.469Z,95103.00
2023-05-20T01:20:15.444Z,95101.00
2023-05-20T01:21:15.437Z,95103.00
2023-05-20T01:22:15.478Z,95101.00
2023-05-20T01:23:15.725Z,95107.00
2023-05-20T01:24:15.489Z,95105.00
2023-05-20T01:25:15.480Z,95107.00
2023-05-20T01:26:15.483Z,95109.00
2023-05-20T01:27:15.495Z,95111.00
2023-05-20T01:28:15.520Z,95111.00
2023-05-20T01:29:15.533Z,95111.00
2023-05-20T01:30:15.517Z,95109.00
2023-05-20T01:31:15.584Z,95107.00
2023-05-20T01:32:15.539Z,95103.00
2023-05-20T01:33:15.568Z,95099.00
2023-05-20T01:34:15.578Z,95101.00
2023-05-20T01:35:15.609Z,95101.00
2023-05-20T01:36:15.583Z,95105.00
2023-05-20T01:37:15.577Z,95101.00
2023-05-20T01:38:15.582Z,95101.00
2023-05-20T01:39:15.618Z,95099.00
2023-05-20T01:40:15.578Z,95095.00
2023-05-20T01:41:15.567Z,95099.00
2023-05-20T01:42:15.617Z,95103.00
2023-05-20T01:43:17.644Z,95103.00
2023-05-20T01:44:15.628Z,95107.00
2023-05-20T01:45:15.649Z,95105.00
2023-05-20T01:46:15.715Z,95107.00
2023-05-20T01:47:15.652Z,95109.00
2023-05-20T01:48:15.660Z,95114.00
2023-05-20T01:49:15.629Z,95118.00
2023-05-20T01:50:15.667Z,95122.00
2023-05-20T01:51:15.659Z,95120.00
2023-05-20T01:52:15.646Z,95124.00
2023-05-20T01:53:15.705Z,95126.00
2023-05-20T01:54:15.724Z,95126.00
2023-05-20T01:55:15.694Z,95128.00
2023-05-20T01:56:15.701Z,95128.00
2023-05-20T01:57:15.768Z,95126.00
2023-05-20T01:58:15.774Z,95126.00
2023-05-20T01:59:15.789Z,95126.00
2023-05-20T02:00:15.829Z,95122.00
2023-05-20T02:01:15.824Z,95124.00
2023-05-20T02:02:15.897Z,95122.00
2023-05-20T02:03:15.883Z,95126.00
2023-05-20T02:04:15.859Z,95124.00
2023-05-20T02:05:15.855Z,95120.00
2023-05-20T02:06:15.915Z,95114.00
2023-05-20T02:07:15.896Z,95111.00
2023-05-20T02:08:15.945Z,95111.00
2023-05-20T02:09:15.923Z,95111.00
2023-05-20T02:10:15.919Z,95109.00
2023-05-20T02:11:15.930Z,95109.00
2023-05-20T02:12:15.916Z,95109.00
2023-05-20T02:13:15.958Z,95107.00
2023-05-20T02:14:15.969Z,95109.00
2023-05-20T02:15:16.001Z,95109.00
2023-05-20T02:16:15.978Z,95112.00
2023-05-20T02:17:16.014Z,95112.00
2023-05-20T02:18:16.047Z,95114.00
2023-05-20T02:19:16.074Z,95111.00
2023-05-20T02:20:16.049Z,95114.00
2023-05-20T02:21:16.055Z,95109.00
2023-05-20T02:22:16.073Z,95109.00
2023-05-20T02:23:16.085Z,95111.00
2023-05-20T02:24:16.117Z,95109.00
2023-05-20T02:25:16.105Z,95107.00
2023-05-20T02:26:16.111Z,95109.00
2023-05-20T02:27:16.110Z,95107.00
2023-05-20T02:28:16.259Z,95105.00
2023-05-20T02:29:16.154Z,95105.00
2023-05-20T02:30:16.190Z,95105.00
2023-05-20T02:31:16.182Z,95105.00
2023-05-20T02:32:16.175Z,95103.00
2023-05-20T02:33:16.260Z,95107.00
2023-05-20T02:34:16.252Z,95105.00
2023-05-20T02:35:16.181Z,95105.00
2023-05-20T02:36:16.231Z,95103.00
2023-05-20T02:37:16.227Z,95101.00
2023-05-20T02:38:16.263Z,95101.00
2023-05-20T02:39:16.239Z,95099.00
2023-05-20T02:40:16.291Z,95097.00
2023-05-20T02:41:16.300Z,95097.00
2023-05-20T02:42:16.286Z,95097.00
2023-05-20T02:43:16.320Z,95097.00
2023-05-20T02:44:16.357Z,95097.00
2023-05-20T02:45:16.350Z,95099.00
2023-05-20T02:46:16.387Z,95101.00
2023-05-20T02:47:16.359Z,95101.00
2023-05-20T02:48:16.382Z,95103.00
2023-05-20T02:49:16.403Z,95099.00
2023-05-20T02:50:16.375Z,95097.00
2023-05-20T02:51:16.419Z,95093.00
2023-05-20T02:52:16.452Z,95089.00
2023-05-20T02:53:16.411Z,95091.00
2023-05-20T02:54:16.484Z,95091.00
2023-05-20T02:55:16.444Z,95093.00
2023-05-20T02:56:16.487Z,95093.00
2023-05-20T02:57:16.512Z,95095.00
2023-05-20T02:58:16.506Z,95089.00
2023-05-20T02:59:16.514Z,95085.00
2023-05-20T03:00:16.537Z,95077.00
2023-05-20T03:01:16.563Z,95077.00
2023-05-20T03:02:16.536Z,95081.00
2023-05-20T03:03:16.559Z,95087.00
2023-05-20T03:04:16.613Z,95091.00
2023-05-20T03:05:16.611Z,95089.00
2023-05-20T03:06:16.625Z,95093.00
2023-05-20T03:07:16.612Z,95091.00
2023-05-20T03:08:16.608Z,95097.00
2023-05-20T03:09:16.641Z,95093.00
2023-05-20T03:10:16.658Z,95091.00
2023-05-20T03:11:16.650Z,95093.00
2023-05-20T03:12:16.661Z,95095.00
2023-05-20T03:13:16.707Z,95095.00
2023-05-20T03:14:16.710Z,95095.00
2023-05-20T03:15:16.666Z,95093.00
2023-05-20T03:16:16.819Z,95093.00
2023-05-20T03:17:16.720Z,95095.00
2023-05-20T03:18:16.744Z,95095.00
2023-05-20T03:19:16.767Z,95095.00
2023-05-20T03:20:16.756Z,95091.00
2023-05-20T03:21:16.813Z,95091.00
2023-05-20T03:22:16.794Z,95091.00
2023-05-20T03:23:16.841Z,95091.00
2023-05-20T03:24:16.833Z,95089.00
2023-05-20T03:25:16.908Z,95091.00
2023-05-20T03:26:16.911Z,95089.00
2023-05-20T03:27:16.858Z,95091.00
2023-05-20T03:28:16.896Z,95087.00
2023-05-20T03:29:16.891Z,95087.00
2023-05-20T03:30:16.961Z,95085.00
2023-05-20T03:31:16.980Z,95083.00
2023-05-20T03:32:17.112Z,95081.00
2023-05-20T03:33:17.005Z,95083.00
2023-05-20T03:34:17.004Z,95083.00
2023-05-20T03:35:17.015Z,95081.00
2023-05-20T03:36:17.046Z,95077.00
2023-05-20T03:37:17.077Z,95075.00
2023-05-20T03:38:17.093Z,95073.00
2023-05-20T03:39:17.097Z,95077.00
2023-05-20T03:40:17.113Z,95077.00
2023-05-20T03:41:17.131Z,95077.00
2023-05-20T03:42:17.193Z,95081.00
2023-05-20T03:43:17.143Z,95083.00
2023-05-20T03:44:17.178Z,95083.00
2023-05-20T03:45:17.206Z,95083.00
2023-05-20T03:46:17.286Z,95083.00
2023-05-20T03:47:17.252Z,95081.00
2023-05-20T03:48:17.261Z,95079.00
2023-05-20T03:49:17.269Z,95079.00
2023-05-20T03:50:17.325Z,95081.00
2023-05-20T03:51:17.328Z,95083.00
2023-05-20T03:52:17.323Z,95083.00
2023-05-20T03:53:17.342Z,95081.00
2023-05-20T03:54:17.394Z,95079.00
2023-05-20T03:55:17.366Z,95079.00
2023-05-20T03:56:17.398Z,95077.00
2023-05-20T03:57:17.404Z,95079.00
2023-05-20T03:58:17.450Z,95081.00
2023-05-20T03:59:17.457Z,95079.00
2023-05-20T04:00:17.448Z,95079.00
2023-05-20T04:01:17.491Z,95081.00
2023-05-20T04:02:17.548Z,95081.00
2023-05-20T04:03:17.565Z,95081.00
2023-05-20T04:04:17.589Z,95077.00
2023-05-20T04:05:17.558Z,95077.00
2023-05-20T04:06:17.570Z,95075.00
2023-05-20T04:07:17.597Z,95077.00
2023-05-20T04:08:17.784Z,95081.00
2023-05-20T04:09:17.652Z,95077.00
2023-05-20T04:10:17.654Z,95077.00
2023-05-20T04:11:17.683Z,95081.00
2023-05-20T04:12:17.737Z,95079.00
2023-05-20T04:13:17.719Z,95079.00
2023-05-20T04:14:17.729Z,95081.00
2023-05-20T04:15:17.770Z,95081.00
2023-05-20T04:16:17.801Z,95083.00
2023-05-20T04:17:17.778Z,95083.00
2023-05-20T04:18:17.833Z,95079.00
2023-05-20T04:19:18.401Z,95079.00
2023-05-20T04:20:17.875Z,95079.00
2023-05-20T04:21:17.908Z,95079.00
2023-05-20T04:22:17.871Z,95083.00
2023-05-20T04:23:17.913Z,95083.00
2023-05-20T04:24:17.913Z,95085.00
2023-05-20T04:25:17.996Z,95083.00
2023-05-20T04:26:17.973Z,95083.00
2023-05-20T04:27:17.987Z,95085.00
2023-05-20T04:28:18.003Z,95085.00
2023-05-20T04:29:18.025Z,95085.00
2023-05-20T04:30:18.032Z,95085.00
2023-05-20T04:31:18.070Z,95085.00
2023-05-20T04:32:18.087Z,95085.00
2023-05-20T04:33:18.083Z,95083.00
2023-05-20T04:34:18.094Z,95085.00
2023-05-20T04:35:18.104Z,95089.00
2023-05-20T04:36:18.143Z,95089.00
2023-05-20T04:37:18.151Z,95091.00
2023-05-20T04:38:18.210Z,95089.00
2023-05-20T04:39:18.180Z,95087.00
2023-05-20T04:40:18.211Z,95089.00
2023-05-20T04:41:18.250Z,95087.00
2023-05-20T04:42:18.223Z,95087.00
2023-05-20T04:43:18.267Z,95089.00
2023-05-20T04:44:18.269Z,95091.00
2023-05-20T04:45:18.303Z,95091.00
2023-05-20T04:46:18.344Z,95091.00
2023-05-20T04:47:18.324Z,95093.00
2023-05-20T04:48:18.367Z,95097.00
2023-05-20T04:49:18.387Z,95101.00
2023-05-20T04:50:18.416Z,95099.00
2023-05-20T04:51:18.422Z,95099.00
2023-05-20T04:52:18.535Z,95097.00
2023-05-20T04:53:18.446Z,95095.00
2023-05-20T04:54:18.490Z,95093.00
2023-05-20T04:55:18.498Z,95093.00
2023-05-20T04:56:18.555Z,95093.00
2023-05-20T04:57:18.561Z,95093.00
2023-05-20T04:58:18.586Z,95093.00
2023-05-20T04:59:18.593Z,95095.00
2023-05-20T05:00:18.584Z,95093.00
2023-05-20T05:01:18.695Z,95093.00
2023-05-20T05:02:18.634Z,95093.00
2023-05-20T05:03:18.674Z,95089.00
2023-05-20T05:04:18.759Z,95087.00
2023-05-20T05:05:18.702Z,95089.00
2023-05-20T05:06:18.689Z,95087.00
2023-05-20T05:07:18.695Z,95087.00
2023-05-20T05:08:18.726Z,95089.00
2023-05-20T05:09:18.721Z,95087.00
2023-05-20T05:10:18.722Z,95089.00
2023-05-20T05:11:18.768Z,95087.00
2023-05-20T05:12:18.770Z,95087.00
2023-05-20T05:13:18.782Z,95087.00
2023-05-20T05:14:18.788Z,95085.00
2023-05-20T05:15:18.799Z,95085.00
2023-05-20T05:16:18.881Z,95079.00
2023-05-20T05:17:18.854Z,95083.00
2023-05-20T05:18:18.851Z,95083.00
2023-05-20T05:19:18.894Z,95081.00
2023-05-20T05:20:18.899Z,95079.00
2023-05-20T05:21:18.894Z,95079.00
2023-05-20T05:22:18.894Z,95081.00
2023-05-20T05:23:18.886Z,95081.00
2023-05-20T05:24:18.935Z,95083.00
2023-05-20T05:25:18.915Z,95083.00
2023-05-20T05:26:18.944Z,95079.00
2023-05-20T05:27:18.950Z,95077.00
2023-05-20T05:28:18.964Z,95073.00
2023-05-20T05:29:18.953Z,95072.00
2023-05-20T05:30:18.943Z,95073.00
2023-05-20T05:31:18.981Z,95073.00
2023-05-20T05:32:18.999Z,95073.00
2023-05-20T05:33:18.955Z,95070.00
2023-05-20T05:34:18.965Z,95072.00
2023-05-20T05:35:18.975Z,95073.00
2023-05-20T05:36:18.976Z,95073.00
2023-05-20T05:37:18.994Z,95077.00
2023-05-20T05:38:18.995Z,95077.00
2023-05-20T05:39:18.996Z,95079.00
2023-05-20T05:40:19.005Z,95075.00
2023-05-20T05:41:19.022Z,95075.00
2023-05-20T05:42:19.042Z,95083.00
2023-05-20T05:43:19.030Z,95081.00
2023-05-20T05:44:19.000Z,95081.00
2023-05-20T05:45:19.008Z,95083.00
2023-05-20T05:46:19.040Z,95083.00
2023-05-20T05:47:19.011Z,95081.00
2023-05-20T05:48:19.012Z,95083.00
2023-05-20T05:49:19.005Z,95085.00
2023-05-20T05:50:19.011Z,95085.00
2023-05-20T05:51:19.006Z,95081.00
2023-05-20T05:52:18.980Z,95079.00
2023-05-20T05:53:19.004Z,95077.00
2023-05-20T05:54:18.990Z,95079.00
2023-05-20T05:55:18.975Z,95083.00
2023-05-20T05:56:18.988Z,95083.00
2023-05-20T05:57:18.995Z,95085.00
2023-05-20T05:58:18.993Z,95089.00
2023-05-20T05:59:18.999Z,95091.00
2023-05-20T06:00:19.022Z,95095.00
2023-05-20T06:01:19.092Z,95091.00
2023-05-20T06:02:19.020Z,95085.00
2023-05-20T06:03:19.086Z,95085.00
2023-05-20T06:04:19.095Z,95087.00
2023-05-20T06:05:18.986Z,95087.00
2023-05-20T06:06:19.008Z,95089.00
2023-05-20T06:07:19.006Z,95091.00
2023-05-20T06:08:18.970Z,95095.00
2023-05-20T06:09:18.960Z,95093.00
2023-05-20T06:10:19.008Z,95093.00
2023-05-20T06:11:18.961Z,95089.00
2023-05-20T06:12:18.998Z,95087.00
2023-05-20T06:13:18.968Z,95089.00
2023-05-20T06:14:18.979Z,95091.00
2023-05-20T06:15:18.973Z,95093.00
2023-05-20T06:16:19.037Z,95097.00
2023-05-20T06:17:18.993Z,95095.00
2023-05-20T06:18:19.077Z,95095.00
2023-05-20T06:19:19.022Z,95093.00
2023-05-20T06:20:19.004Z,95089.00
2023-05-20T06:21:18.977Z,95087.00
2023-05-20T06:22:18.980Z,95089.00
2023-05-20T06:23:19.010Z,95087.00
2023-05-20T06:24:18.988Z,95087.00
2023-05-20T06:25:18.985Z,95087.00
2023-05-20T06:26:19.001Z,95091.00
2023-05-20T06:27:18.950Z,95095.00
2023-05-20T06:28:18.962Z,95097.00
2023-05-20T06:29:18.977Z,95097.00
2023-05-20T06:30:18.954Z,95093.00
2023-05-20T06:31:19.023Z,95089.00
2023-05-20T06:32:18.954Z,95089.00
2023-05-20T06:33:18.968Z,95089.00
2023-05-20T06:34:18.976Z,95089.00
2023-05-20T06:35:18.987Z,95091.00
2023-05-20T06:36:18.979Z,95089.00
2023-05-20T06:37:19.004Z,95087.00
2023-05-20T06:38:19.042Z,95083.00
2023-05-20T06:39:18.970Z,95075.00
2023-05-20T06:40:18.988Z,95070.00
2023-05-20T06:41:18.980Z,95070.00
2023-05-20T06:42:18.944Z,95072.00
2023-05-20T06:43:19.304Z,95072.00
2023-05-20T06:44:18.951Z,95070.00
2023-05-20T06:45:18.984Z,95070.00
2023-05-20T06:46:19.044Z,95070.00
2023-05-20T06:47:18.985Z,95070.00
2023-05-20T06:48:18.961Z,95068.00
2023-05-20T06:49:18.991Z,95066.00
2023-05-20T06:50:18.946Z,95066.00
2023-05-20T06:51:18.928Z,95064.00
2023-05-20T06:52:18.966Z,95062.00
2023-05-20T06:53:18.965Z,95060.00
2023-05-20T06:54:19.003Z,95058.00
2023-05-20T06:55:19.036Z,95058.00
2023-05-20T06:56:18.994Z,95060.00
2023-05-20T06:57:19.025Z,95060.00
2023-05-20T06:58:19.050Z,95060.00
2023-05-20T06:59:19.073Z,95058.00
2023-05-20T07:00:19.118Z,95054.00
2023-05-20T07:01:19.223Z,95050.00
2023-05-20T07:02:19.186Z,95046.00
2023-05-20T07:03:19.226Z,95042.00
2023-05-20T07:04:19.268Z,95042.00
2023-05-20T07:05:19.298Z,95044.00
2023-05-20T07:06:19.293Z,95046.00
2023-05-20T07:07:19.415Z,95044.00
2023-05-20T07:08:19.412Z,95046.00
2023-05-20T07:09:19.489Z,95048.00
2023-05-20T07:10:19.548Z,95044.00
2023-05-20T07:11:19.610Z,95042.00
2023-05-20T07:12:19.685Z,95038.00
2023-05-20T07:13:19.716Z,95034.00
2023-05-20T07:14:19.768Z,95034.00
2023-05-20T07:15:19.791Z,95026.00
2023-05-20T07:16:19.864Z,95023.00
2023-05-20T07:17:19.916Z,95023.00
2023-05-20T07:18:19.962Z,95023.00
2023-05-20T07:19:20.084Z,95023.00
2023-05-20T07:20:20.094Z,95019.00
2023-05-20T07:21:20.172Z,95019.00
2023-05-20T07:22:20.230Z,95015.00
2023-05-20T07:23:20.261Z,95015.00
2023-05-20T07:24:20.320Z,95019.00
2023-05-20T07:25:20.350Z,95015.00
2023-05-20T07:26:20.399Z,95013.00
2023-05-20T07:27:20.435Z,95009.00
2023-05-20T07:28:20.465Z,95011.00
2023-05-20T07:29:20.522Z,95007.00
2023-05-20T07:30:20.574Z,95007.00
2023-05-20T07:31:20.684Z,95005.00
2023-05-20T07:32:20.746Z,95005.00
2023-05-20T07:33:20.781Z,95005.00
2023-05-20T07:34:20.855Z,95005.00
2023-05-20T07:35:20.878Z,95005.00
2023-05-20T07:36:20.956Z,95001.00
2023-05-20T07:37:21.029Z,95003.00
2023-05-20T07:38:21.065Z,94999.00
2023-05-20T07:39:21.132Z,95001.00
2023-05-20T07:40:21.179Z,95001.00
2023-05-20T07:41:21.234Z,94997.00
2023-05-20T07:42:21.297Z,94999.00
2023-05-20T07:43:21.314Z,94997.00
2023-05-20T07:44:21.415Z,94995.00
2023-05-20T07:45:21.492Z,94993.00
2023-05-20T07:46:21.601Z,94993.00
2023-05-20T07:47:21.558Z,94991.00
2023-05-20T07:48:21.635Z,94993.00
2023-05-20T07:49:21.719Z,94995.00
2023-05-20T07:50:21.749Z,94995.00
2023-05-20T07:51:21.829Z,94993.00
2023-05-20T07:52:21.911Z,94993.00
2023-05-20T07:53:21.951Z,94993.00
2023-05-20T07:54:22.005Z,94989.00
2023-05-20T07:55:22.039Z,94989.00
2023-05-20T07:56:22.106Z,94989.00
2023-05-20T07:57:22.192Z,94989.00
2023-05-20T07:58:22.239Z,94987.00
2023-05-20T07:59:22.306Z,94985.00
2023-05-20T08:00:22.350Z,94983.00
2023-05-20T08:01:22.425Z,94981.00
2023-05-20T08:02:22.488Z,94978.00
2023-05-20T08:03:22.852Z,94976.00
2023-05-20T08:04:22.602Z,94978.00
2023-05-20T08:05:22.706Z,94976.00
2023-05-20T08:06:22.713Z,94978.00
2023-05-20T08:07:22.763Z,94978.00
2023-05-20T08:08:22.860Z,94974.00
2023-05-20T08:09:22.890Z,94976.00
2023-05-20T08:10:22.992Z,94974.00
2023-05-20T08:11:22.997Z,94972.00
2023-05-20T08:12:23.070Z,94970.00
2023-05-20T08:13:23.133Z,94964.00
2023-05-20T08:14:23.158Z,94970.00
2023-05-20T08:15:23.233Z,94968.00
2023-05-20T08:16:23.362Z,94966.00
2023-05-20T08:17:23.425Z,94968.00
2023-05-20T08:18:23.426Z,94966.00
2023-05-20T08:19:23.534Z,94964.00
2023-05-20T08:20:23.516Z,94962.00
2023-05-20T08:21:23.581Z,94960.00
2023-05-20T08:22:23.649Z,94960.00
2023-05-20T08:23:23.718Z,94960.00
2023-05-20T08:24:23.754Z,94962.00
2023-05-20T08:25:23.866Z,94962.00
2023-05-20T08:26:23.853Z,94962.00
2023-05-20T08:27:23.893Z,94960.00
2023-05-20T08:28:23.981Z,94960.00
2023-05-20T08:29:24.008Z,94964.00
2023-05-20T08:30:24.062Z,94960.00
2023-05-20T08:31:24.157Z,94958.00
2023-05-20T08:32:24.196Z,94958.00
2023-05-20T08:33:24.282Z,94956.00
2023-05-20T08:34:24.306Z,94958.00
2023-05-20T08:35:24.796Z,94958.00
2023-05-20T08:36:24.413Z,94956.00
2023-05-20T08:37:24.470Z,94952.00
2023-05-20T08:38:24.541Z,94952.00
2023-05-20T08:39:24.587Z,94950.00
2023-05-20T08:40:24.647Z,94948.00
2023-05-20T08:41:24.707Z,94952.00
2023-05-20T08:42:24.770Z,94948.00
2023-05-20T08:43:24.826Z,94946.00
2023-05-20T08:44:24.868Z,94942.00
2023-05-20T08:45:24.922Z,94940.00
2023-05-20T08:46:25.051Z,94936.00
2023-05-20T08:47:25.105Z,94936.00
2023-05-20T08:48:25.069Z,94932.00
2023-05-20T08:49:25.101Z,94929.00
2023-05-20T08:50:25.162Z,94931.00
2023-05-20T08:51:25.251Z,94927.00
2023-05-20T08:52:25.267Z,94925.00
2023-05-20T08:53:25.361Z,94925.00
2023-05-20T08:54:25.412Z,94925.00
2023-05-20T08:55:25.414Z,94925.00
2023-05-20T08:56:25.488Z,94925.00
2023-05-20T08:57:25.544Z,94925.00
2023-05-20T08:58:25.575Z,94927.00
2023-05-20T08:59:25.613Z,94927.00
2023-05-20T09:00:25.664Z,94927.00
2023-05-20T09:01:25.737Z,94927.00
2023-05-20T09:02:25.848Z,94927.00
2023-05-20T09:03:25.839Z,94917.00
2023-05-20T09:04:25.952Z,94917.00
2023-05-20T09:05:25.970Z,94917.00
2023-05-20T09:06:25.976Z,94913.00
2023-05-20T09:07:26.037Z,94913.00
2023-05-20T09:08:26.134Z,94913.00
2023-05-20T09:09:26.127Z,94915.00
2023-05-20T09:10:26.174Z,94915.00
2023-05-20T09:11:26.306Z,94925.00
2023-05-20T09:12:26.308Z,94925.00
2023-05-20T09:13:26.352Z,94931.00
2023-05-20T09:14:26.365Z,94925.00
2023-05-20T09:15:26.430Z,94917.00
2023-05-20T09:16:26.505Z,94925.00
2023-05-20T09:17:26.547Z,94911.00
2023-05-20T09:18:26.592Z,94913.00
2023-05-20T09:19:26.730Z,94915.00
2023-05-20T09:20:26.681Z,94915.00
2023-05-20T09:21:26.684Z,94915.00
2023-05-20T09:22:26.720Z,94917.00
2023-05-20T09:23:26.900Z,94915.00
2023-05-20T09:24:27.119Z,94911.00
2023-05-20T09:25:26.913Z,94909.00
2023-05-20T09:26:26.969Z,94911.00
2023-05-20T09:27:27.029Z,94913.00
2023-05-20T09:28:27.044Z,94911.00
2023-05-20T09:29:27.071Z,94911.00
2023-05-20T09:30:27.144Z,94911.00
2023-05-20T09:31:27.252Z,94909.00
2023-05-20T09:32:27.274Z,94907.00
2023-05-20T09:33:27.317Z,94907.00
2023-05-20T09:34:27.328Z,94905.00
2023-05-20T09:35:27.392Z,94901.00
2023-05-20T09:36:27.429Z,94897.00
2023-05-20T09:37:27.453Z,94899.00
2023-05-20T09:38:27.562Z,94899.00
2023-05-20T09:39:27.553Z,94897.00
2023-05-20T09:40:27.574Z,94897.00
2023-05-20T09:41:27.661Z,94893.00
2023-05-20T09:42:27.692Z,94893.00
2023-05-20T09:43:27.703Z,94887.00
2023-05-20T09:44:27.806Z,94891.00
2023-05-20T09:45:27.833Z,94893.00
2023-05-20T09:46:27.973Z,94889.00
2023-05-20T09:47:27.943Z,94893.00
2023-05-20T09:48:28.514Z,94895.00
2023-05-20T09:49:28.009Z,94893.00
2023-05-20T09:50:28.065Z,94893.00
2023-05-20T09:51:28.103Z,94891.00
2023-05-20T09:52:28.172Z,94891.00
2023-05-20T09:53:28.184Z,94887.00
2023-05-20T09:54:28.239Z,94884.00
2023-05-20T09:55:28.361Z,94876.00
2023-05-20T09:56:28.366Z,94874.00
2023-05-20T09:57:28.408Z,94870.00
2023-05-20T09:58:28.462Z,94864.00
2023-05-20T09:59:28.471Z,94866.00
2023-05-20T10:00:28.532Z,94858.00
2023-05-20T10:01:28.578Z,94856.00
2023-05-20T10:02:28.706Z,94854.00
2023-05-20T10:03:28.983Z,94852.00
2023-05-20T10:04:28.695Z,94852.00
2023-05-20T10:05:28.688Z,94850.00
2023-05-20T10:06:28.740Z,94848.00
2023-05-20T10:07:41.266Z,94846.00
2023-05-20T10:08:29.757Z,94844.00
2023-05-20T10:09:28.753Z,94844.00
2023-05-20T10:10:28.764Z,94842.00
2023-05-20T10:11:28.770Z,94846.00
2023-05-20T10:12:28.750Z,94842.00
2023-05-20T10:13:28.787Z,94844.00
2023-05-20T10:14:28.725Z,94840.00
2023-05-20T10:15:28.758Z,94842.00
2023-05-20T10:16:28.777Z,94844.00
2023-05-20T10:17:28.764Z,94844.00
2023-05-20T10:18:28.730Z,94844.00
2023-05-20T10:19:29.000Z,94842.00
2023-05-20T10:20:28.769Z,94842.00
2023-05-20T10:21:28.849Z,94842.00
2023-05-20T10:22:28.878Z,94844.00
2023-05-20T10:23:28.890Z,94840.00
2023-05-20T10:24:28.953Z,94842.00
2023-05-20T10:25:29.006Z,94839.00
2023-05-20T10:26:29.072Z,94842.00
2023-05-20T10:27:29.079Z,94839.00
2023-05-20T10:28:29.127Z,94840.00
2023-05-20T10:29:29.402Z,94835.00
2023-05-20T10:30:29.220Z,94835.00
2023-05-20T10:31:29.249Z,94833.00
2023-05-20T10:32:29.490Z,94835.00
2023-05-20T10:33:29.467Z,94833.00
2023-05-20T10:34:29.397Z,94835.00
2023-05-20T10:35:29.539Z,94837.00
2023-05-20T10:36:29.533Z,94835.00
2023-05-20T10:37:29.516Z,94835.00
2023-05-20T10:38:29.617Z,94833.00
2023-05-20T10:39:29.652Z,94831.00
2023-05-20T10:40:29.670Z,94831.00
2023-05-20T10:41:29.712Z,94825.00
2023-05-20T10:42:29.769Z,94823.00
2023-05-20T10:43:29.800Z,94823.00
2023-05-20T10:44:29.836Z,94821.00
2023-05-20T10:45:29.880Z,94819.00
2023-05-20T10:46:36.610Z,94817.00
2023-05-20T10:47:30.936Z,94817.00
2023-05-20T10:48:30.014Z,94817.00
2023-05-20T10:49:29.928Z,94815.00
2023-05-20T10:50:29.879Z,94815.00
2023-05-20T10:51:29.871Z,94813.00
2023-05-20T10:52:29.834Z,94815.00
2023-05-20T10:53:34.029Z,94815.00
2023-05-20T10:54:29.843Z,94815.00
2023-05-20T10:55:29.862Z,94815.00
2023-05-20T10:56:29.810Z,94815.00
2023-05-20T10:57:29.803Z,94815.00
2023-05-20T10:58:29.830Z,94813.00
2023-05-20T10:59:29.828Z,94817.00
2023-05-20T11:00:29.818Z,94813.00
2023-05-20T11:01:29.817Z,94813.00
2023-05-20T11:02:29.845Z,94813.00
2023-05-20T11:03:29.874Z,94811.00
2023-05-20T11:04:29.890Z,94811.00
2023-05-20T11:05:29.768Z,94811.00
2023-05-20T11:06:29.773Z,94811.00
2023-05-20T11:07:29.830Z,94807.00
2023-05-20T11:08:29.885Z,94813.00
2023-05-20T11:09:29.895Z,94811.00
2023-05-20T11:10:29.904Z,94811.00
2023-05-20T11:11:30.025Z,94811.00
2023-05-20T11:12:29.986Z,94809.00
2023-05-20T11:13:30.016Z,94807.00
2023-05-20T11:14:30.053Z,94811.00
2023-05-20T11:15:30.138Z,94809.00
2023-05-20T11:16:30.207Z,94807.00
2023-05-20T11:17:30.176Z,94813.00
2023-05-20T11:18:30.218Z,94815.00
2023-05-20T11:19:30.276Z,94815.00
2023-05-20T11:20:30.273Z,94815.00
2023-05-20T11:21:30.292Z,94819.00
2023-05-20T11:22:30.328Z,94817.00
2023-05-20T11:23:30.368Z,94819.00
2023-05-20T11:24:30.411Z,94819.00
2023-05-20T11:25:30.464Z,94815.00
2023-05-20T11:26:30.520Z,94815.00
2023-05-20T11:27:30.498Z,94815.00
2023-05-20T11:28:30.545Z,94819.00
2023-05-20T11:29:30.581Z,94817.00
2023-05-20T11:30:30.606Z,94813.00
2023-05-20T11:31:30.713Z,94821.00
2023-05-20T11:32:30.771Z,94819.00
2023-05-20T11:33:30.695Z,94819.00
2023-05-20T11:34:31.932Z,94815.00
2023-05-20T11:35:30.795Z,94815.00
2023-05-20T11:36:30.850Z,94813.00
2023-05-20T11:37:30.881Z,94811.00
2023-05-20T11:38:30.916Z,94815.00
2023-05-20T11:39:31.429Z,94817.00
2023-05-20T11:40:35.834Z,94819.00
2023-05-20T11:41:31.970Z,94817.00
2023-05-20T11:42:30.972Z,94815.00
2023-05-20T11:43:30.939Z,94815.00
2023-05-20T11:44:30.998Z,94813.00